sensor_id;sensor_type;location;lat;lon;timestamp;P1;durP1;ratioP1;P2;durP2;ratioP2
77466;SDS011;66564;42.482;25.548;2023-03-01T00:01:35;0.63;;;0.52;;
77466;SDS011;66564;42.482;25.548;2023-03-01T00:04:00;0.95;;;0.60;;
77466;SDS011;66564;42.482;25.548;2023-03-01T00:06:26;1.10;;;1.00;;
77466;SDS011;66564;42.482;25.548;2023-03-01T00:08:52;0.77;;;0.63;;
77466;SDS011;66564;42.482;25.548;2023-03-01T00:11:19;1.17;;;0.63;;
77466;SDS011;66564;42.482;25.548;2023-03-01T00:13:47;0.98;;;0.80;;
77466;SDS011;66564;42.482;25.548;2023-03-01T00:16:16;1.10;;;0.85;;
77466;SDS011;66564;42.482;25.548;2023-03-01T00:18:44;1.17;;;1.02;;
77466;SDS011;66564;42.482;25.548;2023-03-01T00:21:09;0.80;;;0.80;;
77466;SDS011;66564;42.482;25.548;2023-03-01T00:23:35;0.68;;;0.55;;
77466;SDS011;66564;42.482;25.548;2023-03-01T00:26:01;1.55;;;1.00;;
77466;SDS011;66564;42.482;25.548;2023-03-01T00:28:27;1.33;;;1.02;;
77466;SDS011;66564;42.482;25.548;2023-03-01T00:30:53;1.40;;;1.30;;
77466;SDS011;66564;42.482;25.548;2023-03-01T00:33:18;1.08;;;0.98;;
77466;SDS011;66564;42.482;25.548;2023-03-01T00:35:44;1.05;;;0.85;;
77466;SDS011;66564;42.482;25.548;2023-03-01T00:38:09;1.30;;;0.85;;
77466;SDS011;66564;42.482;25.548;2023-03-01T00:40:35;1.65;;;1.17;;
77466;SDS011;66564;42.482;25.548;2023-03-01T00:43:01;1.23;;;1.10;;
77466;SDS011;66564;42.482;25.548;2023-03-01T00:45:28;1.25;;;1.15;;
77466;SDS011;66564;42.482;25.548;2023-03-01T00:47:54;1.60;;;1.30;;
77466;SDS011;66564;42.482;25.548;2023-03-01T00:50:19;1.08;;;1.08;;
77466;SDS011;66564;42.482;25.548;2023-03-01T00:52:45;1.63;;;1.42;;
77466;SDS011;66564;42.482;25.548;2023-03-01T00:55:11;1.10;;;1.00;;
77466;SDS011;66564;42.482;25.548;2023-03-01T00:57:37;1.77;;;1.45;;
77466;SDS011;66564;42.482;25.548;2023-03-01T01:00:03;1.63;;;1.20;;
77466;SDS011;66564;42.482;25.548;2023-03-01T01:02:34;1.45;;;1.23;;
77466;SDS011;66564;42.482;25.548;2023-03-01T01:05:00;2.28;;;1.33;;
77466;SDS011;66564;42.482;25.548;2023-03-01T01:07:26;1.17;;;1.00;;
77466;SDS011;66564;42.482;25.548;2023-03-01T01:09:51;1.25;;;1.13;;
77466;SDS011;66564;42.482;25.548;2023-03-01T01:12:17;1.48;;;1.00;;
77466;SDS011;66564;42.482;25.548;2023-03-01T01:14:42;1.33;;;1.10;;
77466;SDS011;66564;42.482;25.548;2023-03-01T01:17:08;0.98;;;0.88;;
77466;SDS011;66564;42.482;25.548;2023-03-01T01:19:33;1.85;;;1.20;;
77466;SDS011;66564;42.482;25.548;2023-03-01T01:21:59;1.38;;;1.05;;
77466;SDS011;66564;42.482;25.548;2023-03-01T01:24:25;0.90;;;0.90;;
77466;SDS011;66564;42.482;25.548;2023-03-01T01:26:50;1.05;;;0.95;;
77466;SDS011;66564;42.482;25.548;2023-03-01T01:29:16;1.45;;;1.30;;
77466;SDS011;66564;42.482;25.548;2023-03-01T01:31:42;1.10;;;1.00;;
77466;SDS011;66564;42.482;25.548;2023-03-01T01:34:09;1.50;;;1.30;;
77466;SDS011;66564;42.482;25.548;2023-03-01T01:36:42;1.55;;;1.30;;
77466;SDS011;66564;42.482;25.548;2023-03-01T01:39:09;1.48;;;1.20;;
77466;SDS011;66564;42.482;25.548;2023-03-01T01:41:38;1.63;;;1.23;;
77466;SDS011;66564;42.482;25.548;2023-03-01T01:44:13;1.63;;;1.40;;
77466;SDS011;66564;42.482;25.548;2023-03-01T01:49:36;2.20;;;1.50;;
77466;SDS011;66564;42.482;25.548;2023-03-01T01:52:07;1.63;;;1.40;;
77466;SDS011;66564;42.482;25.548;2023-03-01T01:57:17;3.05;;;2.03;;
77466;SDS011;66564;42.482;25.548;2023-03-01T01:59:50;2.42;;;1.75;;
77466;SDS011;66564;42.482;25.548;2023-03-01T02:02:19;2.20;;;1.70;;
77466;SDS011;66564;42.482;25.548;2023-03-01T02:04:45;2.13;;;1.42;;
77466;SDS011;66564;42.482;25.548;2023-03-01T02:07:16;1.40;;;1.30;;
77466;SDS011;66564;42.482;25.548;2023-03-01T02:09:47;1.88;;;1.40;;
77466;SDS011;66564;42.482;25.548;2023-03-01T02:12:17;2.10;;;1.73;;
77466;SDS011;66564;42.482;25.548;2023-03-01T02:14:43;3.13;;;1.58;;
77466;SDS011;66564;42.482;25.548;2023-03-01T02:17:09;1.70;;;1.48;;
77466;SDS011;66564;42.482;25.548;2023-03-01T02:22:29;1.98;;;1.50;;
77466;SDS011;66564;42.482;25.548;2023-03-01T02:24:58;2.03;;;1.60;;
77466;SDS011;66564;42.482;25.548;2023-03-01T02:30:35;1.65;;;1.45;;
77466;SDS011;66564;42.482;25.548;2023-03-01T02:33:01;2.20;;;1.70;;
77466;SDS011;66564;42.482;25.548;2023-03-01T02:35:29;1.65;;;1.50;;
77466;SDS011;66564;42.482;25.548;2023-03-01T02:37:57;1.90;;;1.50;;
77466;SDS011;66564;42.482;25.548;2023-03-01T02:40:25;2.00;;;1.60;;
77466;SDS011;66564;42.482;25.548;2023-03-01T02:42:55;2.38;;;1.70;;
77466;SDS011;66564;42.482;25.548;2023-03-01T02:45:21;1.85;;;1.50;;
77466;SDS011;66564;42.482;25.548;2023-03-01T02:47:48;1.98;;;1.50;;
77466;SDS011;66564;42.482;25.548;2023-03-01T02:55:26;1.73;;;1.42;;
77466;SDS011;66564;42.482;25.548;2023-03-01T02:57:52;1.90;;;1.60;;
77466;SDS011;66564;42.482;25.548;2023-03-01T03:00:21;1.88;;;1.50;;
77466;SDS011;66564;42.482;25.548;2023-03-01T03:02:50;2.30;;;1.50;;
77466;SDS011;66564;42.482;25.548;2023-03-01T03:05:21;1.48;;;1.20;;
77466;SDS011;66564;42.482;25.548;2023-03-01T03:07:52;1.90;;;1.48;;
77466;SDS011;66564;42.482;25.548;2023-03-01T03:10:23;1.42;;;1.30;;
77466;SDS011;66564;42.482;25.548;2023-03-01T03:12:53;1.55;;;1.38;;
77466;SDS011;66564;42.482;25.548;2023-03-01T03:15:23;3.33;;;1.50;;
77466;SDS011;66564;42.482;25.548;2023-03-01T03:17:52;1.48;;;1.13;;
77466;SDS011;66564;42.482;25.548;2023-03-01T03:20:19;1.73;;;1.42;;
77466;SDS011;66564;42.482;25.548;2023-03-01T03:22:47;1.73;;;1.63;;
77466;SDS011;66564;42.482;25.548;2023-03-01T03:25:15;1.70;;;1.50;;
77466;SDS011;66564;42.482;25.548;2023-03-01T03:27:44;2.42;;;1.60;;
77466;SDS011;66564;42.482;25.548;2023-03-01T03:30:13;1.83;;;1.42;;
77466;SDS011;66564;42.482;25.548;2023-03-01T03:32:44;1.38;;;1.27;;
77466;SDS011;66564;42.482;25.548;2023-03-01T03:35:22;1.50;;;1.40;;
77466;SDS011;66564;42.482;25.548;2023-03-01T03:37:51;2.15;;;1.60;;
77466;SDS011;66564;42.482;25.548;2023-03-01T03:40:35;2.67;;;1.60;;
77466;SDS011;66564;42.482;25.548;2023-03-01T03:48:50;1.90;;;1.60;;
77466;SDS011;66564;42.482;25.548;2023-03-01T03:51:16;2.10;;;1.70;;
77466;SDS011;66564;42.482;25.548;2023-03-01T03:53:43;2.75;;;1.60;;
77466;SDS011;66564;42.482;25.548;2023-03-01T03:56:09;2.95;;;2.20;;
77466;SDS011;66564;42.482;25.548;2023-03-01T04:01:56;2.97;;;1.92;;
77466;SDS011;66564;42.482;25.548;2023-03-01T04:04:21;1.50;;;1.10;;
77466;SDS011;66564;42.482;25.548;2023-03-01T04:06:47;1.50;;;1.40;;
77466;SDS011;66564;42.482;25.548;2023-03-01T04:09:13;2.00;;;1.60;;
77466;SDS011;66564;42.482;25.548;2023-03-01T04:11:39;2.22;;;1.50;;
77466;SDS011;66564;42.482;25.548;2023-03-01T04:14:04;1.50;;;1.13;;
77466;SDS011;66564;42.482;25.548;2023-03-01T04:16:29;8.90;;;1.38;;
77466;SDS011;66564;42.482;25.548;2023-03-01T04:18:55;2.45;;;1.30;;
77466;SDS011;66564;42.482;25.548;2023-03-01T04:21:21;2.30;;;1.17;;
77466;SDS011;66564;42.482;25.548;2023-03-01T04:23:47;3.10;;;1.20;;
77466;SDS011;66564;42.482;25.548;2023-03-01T04:26:13;7.60;;;2.15;;
77466;SDS011;66564;42.482;25.548;2023-03-01T04:28:39;1.80;;;1.60;;
77466;SDS011;66564;42.482;25.548;2023-03-01T04:31:17;1.30;;;1.20;;
77466;SDS011;66564;42.482;25.548;2023-03-01T04:36:19;2.83;;;1.30;;
77466;SDS011;66564;42.482;25.548;2023-03-01T04:38:46;3.13;;;1.40;;
77466;SDS011;66564;42.482;25.548;2023-03-01T04:41:18;1.98;;;1.42;;
77466;SDS011;66564;42.482;25.548;2023-03-01T04:43:44;1.90;;;1.42;;
77466;SDS011;66564;42.482;25.548;2023-03-01T04:46:11;4.07;;;1.95;;
77466;SDS011;66564;42.482;25.548;2023-03-01T04:48:38;2.70;;;1.90;;
77466;SDS011;66564;42.482;25.548;2023-03-01T04:51:06;3.55;;;1.83;;
77466;SDS011;66564;42.482;25.548;2023-03-01T04:53:33;3.22;;;1.60;;
77466;SDS011;66564;42.482;25.548;2023-03-01T04:56:01;2.50;;;1.70;;
77466;SDS011;66564;42.482;25.548;2023-03-01T04:58:29;4.40;;;1.80;;
77466;SDS011;66564;42.482;25.548;2023-03-01T05:00:54;1.80;;;1.48;;
77466;SDS011;66564;42.482;25.548;2023-03-01T05:03:20;3.33;;;2.30;;
77466;SDS011;66564;42.482;25.548;2023-03-01T05:05:47;3.25;;;2.05;;
77466;SDS011;66564;42.482;25.548;2023-03-01T05:08:14;2.80;;;1.95;;
77466;SDS011;66564;42.482;25.548;2023-03-01T05:10:52;1.90;;;1.50;;
77466;SDS011;66564;42.482;25.548;2023-03-01T05:13:18;1.08;;;0.98;;
77466;SDS011;66564;42.482;25.548;2023-03-01T05:18:18;1.88;;;1.27;;
77466;SDS011;66564;42.482;25.548;2023-03-01T05:20:44;1.58;;;1.48;;
77466;SDS011;66564;42.482;25.548;2023-03-01T05:23:09;4.65;;;1.67;;
77466;SDS011;66564;42.482;25.548;2023-03-01T05:25:35;5.32;;;1.55;;
77466;SDS011;66564;42.482;25.548;2023-03-01T05:28:05;5.13;;;2.42;;
77466;SDS011;66564;42.482;25.548;2023-03-01T05:30:35;5.45;;;3.13;;
77466;SDS011;66564;42.482;25.548;2023-03-01T05:33:01;4.70;;;3.03;;
77466;SDS011;66564;42.482;25.548;2023-03-01T05:35:27;4.53;;;2.45;;
77466;SDS011;66564;42.482;25.548;2023-03-01T05:37:52;3.55;;;2.65;;
77466;SDS011;66564;42.482;25.548;2023-03-01T05:40:19;4.38;;;1.83;;
77466;SDS011;66564;42.482;25.548;2023-03-01T05:42:51;2.75;;;1.90;;
77466;SDS011;66564;42.482;25.548;2023-03-01T05:45:19;8.25;;;3.10;;
77466;SDS011;66564;42.482;25.548;2023-03-01T05:47:47;2.92;;;1.73;;
77466;SDS011;66564;42.482;25.548;2023-03-01T05:50:15;3.20;;;1.70;;
77466;SDS011;66564;42.482;25.548;2023-03-01T05:52:47;6.03;;;1.92;;
77466;SDS011;66564;42.482;25.548;2023-03-01T05:55:16;5.00;;;1.88;;
77466;SDS011;66564;42.482;25.548;2023-03-01T05:57:42;4.57;;;2.17;;
77466;SDS011;66564;42.482;25.548;2023-03-01T06:00:08;5.07;;;2.15;;
77466;SDS011;66564;42.482;25.548;2023-03-01T06:02:35;6.30;;;2.10;;
77466;SDS011;66564;42.482;25.548;2023-03-01T06:05:00;4.95;;;1.73;;
77466;SDS011;66564;42.482;25.548;2023-03-01T06:07:27;3.63;;;1.98;;
77466;SDS011;66564;42.482;25.548;2023-03-01T06:09:53;5.35;;;2.13;;
77466;SDS011;66564;42.482;25.548;2023-03-01T06:12:18;8.20;;;4.05;;
77466;SDS011;66564;42.482;25.548;2023-03-01T06:14:44;5.28;;;2.60;;
77466;SDS011;66564;42.482;25.548;2023-03-01T06:17:12;6.85;;;2.03;;
77466;SDS011;66564;42.482;25.548;2023-03-01T06:19:37;2.15;;;1.77;;
77466;SDS011;66564;42.482;25.548;2023-03-01T06:22:03;2.83;;;1.80;;
77466;SDS011;66564;42.482;25.548;2023-03-01T06:24:28;3.17;;;1.83;;
77466;SDS011;66564;42.482;25.548;2023-03-01T06:26:54;3.33;;;1.92;;
77466;SDS011;66564;42.482;25.548;2023-03-01T06:29:20;7.82;;;2.78;;
77466;SDS011;66564;42.482;25.548;2023-03-01T06:31:47;3.97;;;2.35;;
77466;SDS011;66564;42.482;25.548;2023-03-01T06:34:13;7.07;;;2.08;;
77466;SDS011;66564;42.482;25.548;2023-03-01T06:36:39;3.00;;;1.92;;
77466;SDS011;66564;42.482;25.548;2023-03-01T06:39:05;9.48;;;2.72;;
77466;SDS011;66564;42.482;25.548;2023-03-01T06:41:31;4.70;;;3.35;;
77466;SDS011;66564;42.482;25.548;2023-03-01T06:43:57;5.70;;;2.88;;
77466;SDS011;66564;42.482;25.548;2023-03-01T06:46:23;2.47;;;1.75;;
77466;SDS011;66564;42.482;25.548;2023-03-01T06:48:50;3.53;;;2.00;;
77466;SDS011;66564;42.482;25.548;2023-03-01T06:51:15;3.85;;;2.25;;
77466;SDS011;66564;42.482;25.548;2023-03-01T06:53:41;3.53;;;2.58;;
77466;SDS011;66564;42.482;25.548;2023-03-01T06:56:06;3.25;;;2.28;;
77466;SDS011;66564;42.482;25.548;2023-03-01T06:58:32;5.45;;;2.70;;
77466;SDS011;66564;42.482;25.548;2023-03-01T07:00:57;3.53;;;2.42;;
77466;SDS011;66564;42.482;25.548;2023-03-01T07:03:23;3.70;;;2.80;;
77466;SDS011;66564;42.482;25.548;2023-03-01T07:05:49;4.88;;;3.45;;
77466;SDS011;66564;42.482;25.548;2023-03-01T07:08:17;5.63;;;3.63;;
77466;SDS011;66564;42.482;25.548;2023-03-01T07:10:44;6.38;;;3.13;;
77466;SDS011;66564;42.482;25.548;2023-03-01T07:13:09;5.75;;;3.40;;
77466;SDS011;66564;42.482;25.548;2023-03-01T07:15:35;4.93;;;3.10;;
77466;SDS011;66564;42.482;25.548;2023-03-01T07:18:00;5.15;;;3.17;;
77466;SDS011;66564;42.482;25.548;2023-03-01T07:20:26;6.57;;;3.60;;
77466;SDS011;66564;42.482;25.548;2023-03-01T07:22:52;4.50;;;3.22;;
77466;SDS011;66564;42.482;25.548;2023-03-01T07:25:18;5.97;;;3.90;;
77466;SDS011;66564;42.482;25.548;2023-03-01T07:27:48;9.10;;;3.70;;
77466;SDS011;66564;42.482;25.548;2023-03-01T07:32:40;4.88;;;2.90;;
77466;SDS011;66564;42.482;25.548;2023-03-01T07:35:05;6.25;;;2.97;;
77466;SDS011;66564;42.482;25.548;2023-03-01T07:37:33;4.43;;;3.10;;
77466;SDS011;66564;42.482;25.548;2023-03-01T07:39:59;4.75;;;2.97;;
77466;SDS011;66564;42.482;25.548;2023-03-01T07:42:24;5.07;;;3.17;;
77466;SDS011;66564;42.482;25.548;2023-03-01T07:44:50;4.25;;;3.08;;
77466;SDS011;66564;42.482;25.548;2023-03-01T07:47:15;7.25;;;4.32;;
77466;SDS011;66564;42.482;25.548;2023-03-01T07:49:41;7.30;;;3.33;;
77466;SDS011;66564;42.482;25.548;2023-03-01T07:52:06;5.57;;;3.15;;
77466;SDS011;66564;42.482;25.548;2023-03-01T07:54:34;3.90;;;2.58;;
77466;SDS011;66564;42.482;25.548;2023-03-01T07:56:59;4.53;;;3.40;;
77466;SDS011;66564;42.482;25.548;2023-03-01T07:59:25;6.00;;;4.28;;
77466;SDS011;66564;42.482;25.548;2023-03-01T08:01:54;4.20;;;2.97;;
77466;SDS011;66564;42.482;25.548;2023-03-01T08:04:22;4.57;;;2.83;;
77466;SDS011;66564;42.482;25.548;2023-03-01T08:06:50;9.35;;;6.22;;
77466;SDS011;66564;42.482;25.548;2023-03-01T08:09:16;4.60;;;2.92;;
77466;SDS011;66564;42.482;25.548;2023-03-01T08:11:41;6.80;;;2.60;;
77466;SDS011;66564;42.482;25.548;2023-03-01T08:14:07;9.75;;;3.65;;
77466;SDS011;66564;42.482;25.548;2023-03-01T08:16:33;4.70;;;3.03;;
77466;SDS011;66564;42.482;25.548;2023-03-01T08:19:10;6.18;;;3.20;;
77466;SDS011;66564;42.482;25.548;2023-03-01T08:21:37;8.85;;;3.33;;
77466;SDS011;66564;42.482;25.548;2023-03-01T08:24:03;4.05;;;2.70;;
77466;SDS011;66564;42.482;25.548;2023-03-01T08:26:30;4.05;;;2.58;;
77466;SDS011;66564;42.482;25.548;2023-03-01T08:28:57;4.93;;;2.17;;
77466;SDS011;66564;42.482;25.548;2023-03-01T08:31:23;4.40;;;2.58;;
77466;SDS011;66564;42.482;25.548;2023-03-01T08:33:50;5.15;;;2.40;;
77466;SDS011;66564;42.482;25.548;2023-03-01T08:36:20;6.57;;;2.28;;
77466;SDS011;66564;42.482;25.548;2023-03-01T08:38:48;6.90;;;2.63;;
77466;SDS011;66564;42.482;25.548;2023-03-01T08:41:14;5.65;;;2.33;;
77466;SDS011;66564;42.482;25.548;2023-03-01T08:43:40;4.43;;;2.58;;
77466;SDS011;66564;42.482;25.548;2023-03-01T08:46:06;5.97;;;3.08;;
77466;SDS011;66564;42.482;25.548;2023-03-01T08:48:31;7.82;;;2.40;;
77466;SDS011;66564;42.482;25.548;2023-03-01T08:50:57;7.07;;;4.32;;
77466;SDS011;66564;42.482;25.548;2023-03-01T08:53:33;9.18;;;4.50;;
77466;SDS011;66564;42.482;25.548;2023-03-01T08:56:01;7.22;;;3.20;;
77466;SDS011;66564;42.482;25.548;2023-03-01T08:58:30;6.05;;;3.88;;
77466;SDS011;66564;42.482;25.548;2023-03-01T09:00:55;7.15;;;2.90;;
77466;SDS011;66564;42.482;25.548;2023-03-01T09:03:21;9.77;;;3.97;;
77466;SDS011;66564;42.482;25.548;2023-03-01T09:05:47;5.85;;;3.13;;
77466;SDS011;66564;42.482;25.548;2023-03-01T09:08:15;7.47;;;3.70;;
77466;SDS011;66564;42.482;25.548;2023-03-01T09:10:41;8.27;;;3.58;;
77466;SDS011;66564;42.482;25.548;2023-03-01T09:13:07;5.85;;;3.80;;
77466;SDS011;66564;42.482;25.548;2023-03-01T09:15:33;8.00;;;4.50;;
77466;SDS011;66564;42.482;25.548;2023-03-01T09:17:59;7.70;;;4.05;;
77466;SDS011;66564;42.482;25.548;2023-03-01T09:20:25;6.10;;;3.80;;
77466;SDS011;66564;42.482;25.548;2023-03-01T09:22:50;6.28;;;3.80;;
77466;SDS011;66564;42.482;25.548;2023-03-01T09:25:16;7.72;;;3.63;;
77466;SDS011;66564;42.482;25.548;2023-03-01T09:27:41;6.68;;;3.40;;
77466;SDS011;66564;42.482;25.548;2023-03-01T09:30:07;5.50;;;3.17;;
77466;SDS011;66564;42.482;25.548;2023-03-01T09:32:33;4.85;;;3.13;;
77466;SDS011;66564;42.482;25.548;2023-03-01T09:34:58;4.97;;;3.53;;
77466;SDS011;66564;42.482;25.548;2023-03-01T09:37:29;8.77;;;3.63;;
77466;SDS011;66564;42.482;25.548;2023-03-01T09:39:59;5.47;;;2.80;;
77466;SDS011;66564;42.482;25.548;2023-03-01T09:42:24;6.75;;;4.00;;
77466;SDS011;66564;42.482;25.548;2023-03-01T09:44:53;6.00;;;3.88;;
77466;SDS011;66564;42.482;25.548;2023-03-01T09:47:30;7.95;;;3.50;;
77466;SDS011;66564;42.482;25.548;2023-03-01T09:50:14;8.57;;;3.90;;
77466;SDS011;66564;42.482;25.548;2023-03-01T09:58:19;7.43;;;3.95;;
77466;SDS011;66564;42.482;25.548;2023-03-01T10:00:55;9.50;;;5.13;;
77466;SDS011;66564;42.482;25.548;2023-03-01T10:06:19;9.40;;;3.67;;
77466;SDS011;66564;42.482;25.548;2023-03-01T10:11:30;6.28;;;3.60;;
77466;SDS011;66564;42.482;25.548;2023-03-01T10:19:10;7.45;;;4.30;;
77466;SDS011;66564;42.482;25.548;2023-03-01T10:21:49;8.43;;;3.70;;
77466;SDS011;66564;42.482;25.548;2023-03-01T10:24:16;7.57;;;3.95;;
77466;SDS011;66564;42.482;25.548;2023-03-01T10:26:57;7.45;;;3.90;;
77466;SDS011;66564;42.482;25.548;2023-03-01T10:30:32;7.75;;;3.63;;
77466;SDS011;66564;42.482;25.548;2023-03-01T10:32:41;7.38;;;3.67;;
77466;SDS011;66564;42.482;25.548;2023-03-01T10:35:21;5.70;;;3.53;;
77466;SDS011;66564;42.482;25.548;2023-03-01T10:37:59;8.43;;;3.97;;
77466;SDS011;66564;42.482;25.548;2023-03-01T10:40:29;6.13;;;4.00;;
77466;SDS011;66564;42.482;25.548;2023-03-01T10:42:57;6.82;;;4.28;;
77466;SDS011;66564;42.482;25.548;2023-03-01T10:50:49;7.47;;;3.83;;
77466;SDS011;66564;42.482;25.548;2023-03-01T10:56:05;6.25;;;3.90;;
77466;SDS011;66564;42.482;25.548;2023-03-01T10:58:36;5.88;;;4.03;;
77466;SDS011;66564;42.482;25.548;2023-03-01T11:01:04;5.05;;;3.25;;
77466;SDS011;66564;42.482;25.548;2023-03-01T11:03:42;7.50;;;4.72;;
77466;SDS011;66564;42.482;25.548;2023-03-01T11:11:20;4.68;;;3.53;;
77466;SDS011;66564;42.482;25.548;2023-03-01T11:13:59;6.45;;;4.45;;
77466;SDS011;66564;42.482;25.548;2023-03-01T11:16:45;6.63;;;3.50;;
77466;SDS011;66564;42.482;25.548;2023-03-01T11:19:15;5.68;;;3.80;;
77466;SDS011;66564;42.482;25.548;2023-03-01T11:24:40;7.10;;;4.53;;
77466;SDS011;66564;42.482;25.548;2023-03-01T11:27:51;7.32;;;4.90;;
77466;SDS011;66564;42.482;25.548;2023-03-01T11:30:13;6.25;;;4.22;;
77466;SDS011;66564;42.482;25.548;2023-03-01T11:32:47;6.60;;;4.68;;
77466;SDS011;66564;42.482;25.548;2023-03-01T11:35:26;7.85;;;3.83;;
77466;SDS011;66564;42.482;25.548;2023-03-01T11:40:50;7.93;;;4.55;;
77466;SDS011;66564;42.482;25.548;2023-03-01T11:45:59;15.90;;;8.20;;
77466;SDS011;66564;42.482;25.548;2023-03-01T11:57:43;8.30;;;4.38;;
77466;SDS011;66564;42.482;25.548;2023-03-01T12:05:07;7.93;;;4.82;;
77466;SDS011;66564;42.482;25.548;2023-03-01T12:07:37;7.00;;;4.78;;
77466;SDS011;66564;42.482;25.548;2023-03-01T12:10:26;9.55;;;5.15;;
77466;SDS011;66564;42.482;25.548;2023-03-01T12:16:24;8.85;;;4.55;;
77466;SDS011;66564;42.482;25.548;2023-03-01T12:19:24;9.63;;;5.22;;
77466;SDS011;66564;42.482;25.548;2023-03-01T12:49:21;10.75;;;5.47;;
77466;SDS011;66564;42.482;25.548;2023-03-01T12:51:57;11.75;;;5.88;;
77466;SDS011;66564;42.482;25.548;2023-03-01T12:54:28;10.40;;;6.10;;
77466;SDS011;66564;42.482;25.548;2023-03-01T12:56:57;9.18;;;4.95;;
77466;SDS011;66564;42.482;25.548;2023-03-01T12:59:31;7.35;;;5.35;;
77466;SDS011;66564;42.482;25.548;2023-03-01T13:02:20;12.85;;;6.03;;
77466;SDS011;66564;42.482;25.548;2023-03-01T13:08:20;9.45;;;5.70;;
77466;SDS011;66564;42.482;25.548;2023-03-01T13:10:52;8.75;;;4.75;;
77466;SDS011;66564;42.482;25.548;2023-03-01T13:13:24;16.88;;;5.68;;
77466;SDS011;66564;42.482;25.548;2023-03-01T13:15:52;8.95;;;5.55;;
77466;SDS011;66564;42.482;25.548;2023-03-01T13:20:48;10.82;;;5.95;;
77466;SDS011;66564;42.482;25.548;2023-03-01T13:28:45;10.73;;;5.32;;
77466;SDS011;66564;42.482;25.548;2023-03-01T13:33:41;9.38;;;5.80;;
77466;SDS011;66564;42.482;25.548;2023-03-01T13:36:11;9.50;;;5.82;;
77466;SDS011;66564;42.482;25.548;2023-03-01T13:39:43;10.40;;;5.13;;
77466;SDS011;66564;42.482;25.548;2023-03-01T13:41:56;12.85;;;6.03;;
77466;SDS011;66564;42.482;25.548;2023-03-01T13:44:25;8.38;;;5.53;;
77466;SDS011;66564;42.482;25.548;2023-03-01T13:57:42;11.98;;;5.60;;
77466;SDS011;66564;42.482;25.548;2023-03-01T14:00:30;11.48;;;5.63;;
77466;SDS011;66564;42.482;25.548;2023-03-01T14:03:18;11.15;;;7.00;;
77466;SDS011;66564;42.482;25.548;2023-03-01T14:08:31;11.60;;;6.47;;
77466;SDS011;66564;42.482;25.548;2023-03-01T14:18:46;14.90;;;6.68;;
77466;SDS011;66564;42.482;25.548;2023-03-01T14:21:17;14.90;;;7.70;;
77466;SDS011;66564;42.482;25.548;2023-03-01T14:23:45;15.85;;;7.72;;
77466;SDS011;66564;42.482;25.548;2023-03-01T14:26:11;15.15;;;7.95;;
77466;SDS011;66564;42.482;25.548;2023-03-01T14:28:37;20.50;;;9.30;;
77466;SDS011;66564;42.482;25.548;2023-03-01T14:31:23;17.35;;;9.45;;
77466;SDS011;66564;42.482;25.548;2023-03-01T14:34:02;15.00;;;8.10;;
77466;SDS011;66564;42.482;25.548;2023-03-01T14:36:32;12.25;;;7.10;;
77466;SDS011;66564;42.482;25.548;2023-03-01T14:38:59;12.55;;;6.07;;
77466;SDS011;66564;42.482;25.548;2023-03-01T14:41:30;12.40;;;6.90;;
77466;SDS011;66564;42.482;25.548;2023-03-01T14:44:00;18.02;;;7.07;;
77466;SDS011;66564;42.482;25.548;2023-03-01T14:46:33;13.23;;;7.68;;
77466;SDS011;66564;42.482;25.548;2023-03-01T14:51:38;11.27;;;7.35;;
77466;SDS011;66564;42.482;25.548;2023-03-01T14:54:28;10.52;;;7.15;;
77466;SDS011;66564;42.482;25.548;2023-03-01T14:56:58;10.13;;;5.28;;
77466;SDS011;66564;42.482;25.548;2023-03-01T15:01:51;11.00;;;5.32;;
77466;SDS011;66564;42.482;25.548;2023-03-01T15:04:36;12.15;;;5.80;;
77466;SDS011;66564;42.482;25.548;2023-03-01T15:07:02;8.70;;;5.82;;
77466;SDS011;66564;42.482;25.548;2023-03-01T15:09:32;28.42;;;7.07;;
77466;SDS011;66564;42.482;25.548;2023-03-01T15:14:57;11.32;;;6.13;;
77466;SDS011;66564;42.482;25.548;2023-03-01T15:17:36;10.30;;;5.93;;
77466;SDS011;66564;42.482;25.548;2023-03-01T15:20:14;17.63;;;6.30;;
77466;SDS011;66564;42.482;25.548;2023-03-01T15:22:45;40.60;;;7.22;;
77466;SDS011;66564;42.482;25.548;2023-03-01T15:25:15;30.20;;;6.35;;
77466;SDS011;66564;42.482;25.548;2023-03-01T15:27:48;10.70;;;6.05;;
77466;SDS011;66564;42.482;25.548;2023-03-01T15:30:20;15.05;;;7.85;;
77466;SDS011;66564;42.482;25.548;2023-03-01T15:32:48;15.77;;;7.10;;
77466;SDS011;66564;42.482;25.548;2023-03-01T15:35:44;15.60;;;9.75;;
77466;SDS011;66564;42.482;25.548;2023-03-01T15:41:29;12.73;;;7.22;;
77466;SDS011;66564;42.482;25.548;2023-03-01T15:43:57;11.90;;;6.72;;
77466;SDS011;66564;42.482;25.548;2023-03-01T15:46:39;16.20;;;7.97;;
77466;SDS011;66564;42.482;25.548;2023-03-01T15:49:05;21.05;;;9.38;;
77466;SDS011;66564;42.482;25.548;2023-03-01T15:52:05;16.52;;;8.45;;
77466;SDS011;66564;42.482;25.548;2023-03-01T15:54:55;15.43;;;8.82;;
77466;SDS011;66564;42.482;25.548;2023-03-01T15:57:25;16.40;;;8.95;;
77466;SDS011;66564;42.482;25.548;2023-03-01T15:59:51;15.98;;;8.05;;
77466;SDS011;66564;42.482;25.548;2023-03-01T16:02:16;9.48;;;6.25;;
77466;SDS011;66564;42.482;25.548;2023-03-01T16:04:42;14.60;;;8.10;;
77466;SDS011;66564;42.482;25.548;2023-03-01T16:07:08;10.05;;;6.55;;
77466;SDS011;66564;42.482;25.548;2023-03-01T16:09:34;11.52;;;6.88;;
77466;SDS011;66564;42.482;25.548;2023-03-01T16:12:00;14.63;;;8.07;;
77466;SDS011;66564;42.482;25.548;2023-03-01T16:14:26;12.80;;;7.25;;
77466;SDS011;66564;42.482;25.548;2023-03-01T16:16:52;15.82;;;9.75;;
77466;SDS011;66564;42.482;25.548;2023-03-01T16:19:18;16.85;;;9.13;;
77466;SDS011;66564;42.482;25.548;2023-03-01T16:21:43;39.63;;;11.40;;
77466;SDS011;66564;42.482;25.548;2023-03-01T16:24:12;20.23;;;11.32;;
77466;SDS011;66564;42.482;25.548;2023-03-01T16:26:38;17.52;;;9.73;;
77466;SDS011;66564;42.482;25.548;2023-03-01T16:29:03;13.68;;;8.35;;
77466;SDS011;66564;42.482;25.548;2023-03-01T16:31:29;15.15;;;7.85;;
77466;SDS011;66564;42.482;25.548;2023-03-01T16:33:56;18.08;;;8.05;;
77466;SDS011;66564;42.482;25.548;2023-03-01T16:36:22;16.42;;;8.18;;
77466;SDS011;66564;42.482;25.548;2023-03-01T16:38:49;18.75;;;7.53;;
77466;SDS011;66564;42.482;25.548;2023-03-01T16:41:16;12.40;;;6.93;;
77466;SDS011;66564;42.482;25.548;2023-03-01T16:43:45;12.35;;;6.80;;
77466;SDS011;66564;42.482;25.548;2023-03-01T16:48:48;10.93;;;7.03;;
77466;SDS011;66564;42.482;25.548;2023-03-01T16:51:14;14.18;;;7.72;;
77466;SDS011;66564;42.482;25.548;2023-03-01T16:53:40;12.75;;;7.15;;
77466;SDS011;66564;42.482;25.548;2023-03-01T16:56:08;20.67;;;9.55;;
77466;SDS011;66564;42.482;25.548;2023-03-01T16:58:35;13.70;;;7.75;;
77466;SDS011;66564;42.482;25.548;2023-03-01T17:01:05;23.15;;;8.55;;
77466;SDS011;66564;42.482;25.548;2023-03-01T17:03:39;19.05;;;8.30;;
77466;SDS011;66564;42.482;25.548;2023-03-01T17:06:06;16.73;;;8.45;;
77466;SDS011;66564;42.482;25.548;2023-03-01T17:08:33;12.48;;;8.10;;
77466;SDS011;66564;42.482;25.548;2023-03-01T17:11:04;14.88;;;7.90;;
77466;SDS011;66564;42.482;25.548;2023-03-01T17:16:03;16.42;;;9.23;;
77466;SDS011;66564;42.482;25.548;2023-03-01T17:18:30;16.73;;;9.73;;
77466;SDS011;66564;42.482;25.548;2023-03-01T17:20:55;19.58;;;9.13;;
77466;SDS011;66564;42.482;25.548;2023-03-01T17:23:21;22.55;;;9.02;;
77466;SDS011;66564;42.482;25.548;2023-03-01T17:25:46;19.55;;;8.40;;
77466;SDS011;66564;42.482;25.548;2023-03-01T17:28:12;17.60;;;9.23;;
77466;SDS011;66564;42.482;25.548;2023-03-01T17:30:40;23.35;;;9.73;;